Time;durP1;ratioP1;P1;durP2;ratioP2;P2;SDS_P1;SDS_P2;PMS_P1;PMS_P2;Temp;Humidity;BMP_temperature;BMP_pressure;BME280_temperature;BME280_humidity;BME280_pressure;Samples;Min_cycle;Max_cycle;Signal;HPM_P1;HPM_P2
2022/09/20 00:01:31;;;;;;;;;;;19.00;66.00;;;;;;4513523;31;20032;-65
2022/09/20 00:04:01;;;;;;;;;;;19.00;66.20;;;;;;4513461;31;20017;-65
2022/09/20 00:06:28;;;;;;;;;;;19.00;66.00;;;;;;4512659;31;20105;-66
2022/09/20 00:08:55;;;;;;;;;;;19.00;66.00;;;;;;4514076;31;20017;-66
2022/09/20 00:11:22;;;;;;;;;;;19.00;66.00;;;;;;4510927;31;20061;-66
2022/09/20 00:13:49;;;;;;;;;;;19.00;66.00;;;;;;4512037;31;20559;-66
2022/09/20 00:16:17;;;;;;;;;;;19.00;65.90;;;;;;4514121;31;20187;-66
2022/09/20 00:18:47;;;;;;;;;;;19.00;65.90;;;;;;4513032;31;20036;-66
2022/09/20 00:21:16;;;;;;;;;;;19.00;66.00;;;;;;4511513;31;20440;-66
2022/09/20 00:23:42;;;;;;;;;;;19.00;65.90;;;;;;4509165;31;20095;-66
2022/09/20 00:26:08;;;;;;;;;;;19.00;65.90;;;;;;4512830;31;20270;-66
2022/09/20 00:28:34;;;;;;;;;;;19.00;65.90;;;;;;4512699;31;20025;-65
2022/09/20 00:31:00;;;;;;;;;;;19.00;66.00;;;;;;4512471;31;20040;-66
2022/09/20 00:36:12;;;;;;;;;;;18.90;65.90;;;;;;4487160;31;20232;-66
2022/09/20 00:38:38;;;;;;;;;;;18.90;65.90;;;;;;4513043;31;20041;-66
2022/09/20 00:41:04;;;;;;;;;;;18.90;65.90;;;;;;4512179;31;20165;-66
2022/09/20 00:43:37;;;;;;;;;;;18.90;65.90;;;;;;4512560;31;20021;-66
2022/09/20 00:46:03;;;;;;;;;;;18.90;65.90;;;;;;4508669;31;20037;-66
2022/09/20 00:48:29;;;;;;;;;;;18.90;65.90;;;;;;4511977;31;20039;-65
2022/09/20 00:50:58;;;;;;;;;;;18.90;65.90;;;;;;4512692;31;20044;-65
2022/09/20 00:53:26;;;;;;;;;;;18.90;66.80;;;;;;4511990;31;20130;-65
2022/09/20 00:55:54;;;;;;;;;;;18.90;65.90;;;;;;4512554;31;20025;-66
2022/09/20 00:58:22;;;;;;;;;;;18.90;65.90;;;;;;4512306;31;20032;-66
2022/09/20 01:00:50;;;;;;;;;;;18.90;65.90;;;;;;4512273;31;20036;-66
2022/09/20 01:03:16;;;;;;;;;;;18.90;65.90;;;;;;4511452;31;20032;-66
2022/09/20 01:05:43;;;;;;;;;;;18.90;65.80;;;;;;4510627;31;20025;-65
2022/09/20 01:08:09;;;;;;;;;;;18.90;65.90;;;;;;4512861;31;20083;-66
2022/09/20 01:10:35;;;;;;;;;;;18.90;65.90;;;;;;4511915;31;20035;-66
2022/09/20 01:13:00;;;;;;;;;;;18.90;66.00;;;;;;4512969;31;20243;-66
2022/09/20 01:15:27;;;;;;;;;;;18.90;66.00;;;;;;4524751;31;20016;-66
2022/09/20 01:17:55;;;;;;;;;;;18.90;66.00;;;;;;4512601;31;20155;-65
2022/09/20 01:20:25;;;;;;;;;;;18.90;65.90;;;;;;4512982;31;20070;-66
2022/09/20 01:23:00;;;;;;;;;;;18.90;66.00;;;;;;4510463;31;20072;-66
2022/09/20 01:25:47;;;;;;;;;;;18.90;65.90;;;;;;4498619;31;20028;-65
2022/09/20 01:28:14;;;;;;;;;;;18.80;65.80;;;;;;4509455;31;20110;-66
2022/09/20 01:30:46;;;;;;;;;;;18.80;65.80;;;;;;4507889;31;20032;-66
2022/09/20 01:33:15;;;;;;;;;;;18.80;65.80;;;;;;4508237;31;20041;-66
2022/09/20 01:35:43;;;;;;;;;;;18.80;65.80;;;;;;4497838;31;20032;-66
2022/09/20 01:38:24;;;;;;;;;;;18.80;65.80;;;;;;4507753;31;20029;-66
2022/09/20 01:40:55;;;;;;;;;;;18.80;65.80;;;;;;4497111;31;20175;-66
2022/09/20 01:43:24;;;;;;;;;;;18.90;65.90;;;;;;4507695;31;20272;-66
2022/09/20 01:45:51;;;;;;;;;;;18.80;65.80;;;;;;4512973;31;20044;-66
2022/09/20 01:48:38;;;;;;;;;;;18.80;65.80;;;;;;4512902;31;20017;-65
2022/09/20 01:51:23;;;;;;;;;;;18.80;65.80;;;;;;4497743;31;20218;-65
2022/09/20 01:53:49;;;;;;;;;;;18.80;65.80;;;;;;4508998;31;20036;-66
2022/09/20 01:56:33;;;;;;;;;;;18.80;65.80;;;;;;4512984;31;20025;-66
2022/09/20 01:59:18;;;;;;;;;;;18.80;65.80;;;;;;4514627;31;20028;-65
2022/09/20 02:01:50;;;;;;;;;;;18.80;65.80;;;;;;4514734;31;20089;-65
2022/09/20 02:04:35;;;;;;;;;;;18.80;65.70;;;;;;4515938;31;20458;-65
2022/09/20 02:07:04;;;;;;;;;;;18.80;65.70;;;;;;4512031;31;20064;-66
2022/09/20 02:09:45;;;;;;;;;;;18.80;65.70;;;;;;4515125;31;20029;-65
2022/09/20 02:12:30;;;;;;;;;;;18.80;65.80;;;;;;4515844;31;20032;-65
2022/09/20 02:15:14;;;;;;;;;;;18.70;65.70;;;;;;4513743;31;20021;-66
2022/09/20 02:17:40;;;;;;;;;;;18.80;65.70;;;;;;4514047;31;20033;-66
2022/09/20 02:20:17;;;;;;;;;;;18.80;65.70;;;;;;4513776;31;20095;-66
2022/09/20 02:22:49;;;;;;;;;;;18.80;65.80;;;;;;4512628;31;20040;-65
2022/09/20 02:25:18;;;;;;;;;;;18.80;65.70;;;;;;4515890;31;20134;-65
2022/09/20 02:27:47;;;;;;;;;;;18.80;65.80;;;;;;4513455;31;20025;-65
2022/09/20 02:30:22;;;;;;;;;;;18.70;65.70;;;;;;4515376;31;20052;-65
2022/09/20 02:33:11;;;;;;;;;;;18.70;65.60;;;;;;4515267;31;20150;-66
2022/09/20 02:36:00;;;;;;;;;;;18.70;65.70;;;;;;4514682;31;20110;-66
2022/09/20 02:38:29;;;;;;;;;;;18.70;65.70;;;;;;4509047;31;20064;-65
2022/09/20 02:41:10;;;;;;;;;;;18.70;65.70;;;;;;4515285;31;20040;-66
2022/09/20 02:43:42;;;;;;;;;;;18.70;65.70;;;;;;4515162;31;20159;-65
2022/09/20 02:46:27;;;;;;;;;;;18.70;65.70;;;;;;4515908;31;20028;-65
2022/09/20 02:49:02;;;;;;;;;;;18.80;65.70;;;;;;4524431;31;20044;-66
2022/09/20 02:51:38;;;;;;;;;;;18.70;65.60;;;;;;4515412;31;20142;-66
2022/09/20 02:54:16;;;;;;;;;;;18.70;65.70;;;;;;4513119;31;20032;-66
2022/09/20 02:56:46;;;;;;;;;;;18.70;65.70;;;;;;4515112;31;20063;-66
2022/09/20 02:59:23;;;;;;;;;;;18.70;65.60;;;;;;4514761;31;20086;-66
2022/09/20 03:01:54;;;;;;;;;;;18.70;65.70;;;;;;4514784;31;20480;-66
2022/09/20 03:04:21;;;;;;;;;;;18.70;65.70;;;;;;4515673;31;20029;-65
2022/09/20 03:06:46;;;;;;;;;;;18.70;65.50;;;;;;4515229;31;20036;-66
2022/09/20 03:09:17;;;;;;;;;;;18.70;65.60;;;;;;4489574;31;20021;-65
2022/09/20 03:11:43;;;;;;;;;;;18.70;65.60;;;;;;4509384;31;20054;-65
2022/09/20 03:14:27;;;;;;;;;;;18.70;65.60;;;;;;4514569;31;20276;-65
2022/09/20 03:16:53;;;;;;;;;;;18.70;65.60;;;;;;4515860;31;20028;-66
2022/09/20 03:19:27;;;;;;;;;;;18.70;65.60;;;;;;4514473;31;20013;-65
2022/09/20 03:22:11;;;;;;;;;;;18.70;65.50;;;;;;4514955;31;20032;-66
2022/09/20 03:24:52;;;;;;;;;;;18.70;65.60;;;;;;4512716;31;20071;-66
2022/09/20 03:27:27;;;;;;;;;;;18.70;65.60;;;;;;4514257;31;20536;-66
2022/09/20 03:29:55;;;;;;;;;;;18.70;65.60;;;;;;4515242;31;20085;-66
2022/09/20 03:32:27;;;;;;;;;;;18.70;65.60;;;;;;4497772;31;20040;-66
2022/09/20 03:34:57;;;;;;;;;;;18.70;65.60;;;;;;4509749;31;20150;-66
2022/09/20 03:37:31;;;;;;;;;;;18.70;65.50;;;;;;4515024;31;20032;-66
2022/09/20 03:39:57;;;;;;;;;;;18.70;65.60;;;;;;4489767;31;20037;-66
2022/09/20 03:42:29;;;;;;;;;;;18.60;65.50;;;;;;4514548;31;20013;-66
2022/09/20 03:45:13;;;;;;;;;;;18.60;65.40;;;;;;4514499;31;20055;-66
2022/09/20 03:47:59;;;;;;;;;;;18.60;65.50;;;;;;4498907;31;20039;-66
2022/09/20 03:50:40;;;;;;;;;;;18.60;65.50;;;;;;4510563;31;20040;-65
2022/09/20 03:53:09;;;;;;;;;;;18.60;65.50;;;;;;4513754;31;20167;-65
2022/09/20 03:55:48;;;;;;;;;;;18.60;65.40;;;;;;4514935;31;20029;-66
2022/09/20 03:58:40;;;;;;;;;;;18.60;65.40;;;;;;4514592;31;20086;-66
2022/09/20 04:01:14;;;;;;;;;;;18.60;65.50;;;;;;4514195;31;20063;-65
2022/09/20 04:03:59;;;;;;;;;;;18.60;65.40;;;;;;4514115;31;20036;-65
2022/09/20 04:06:28;;;;;;;;;;;18.60;65.40;;;;;;4508817;31;20056;-66
2022/09/20 04:08:54;;;;;;;;;;;18.60;65.40;;;;;;4509224;31;20040;-66
2022/09/20 04:11:27;;;;;;;;;;;18.60;65.40;;;;;;4514270;31;20031;-66
2022/09/20 04:14:13;;;;;;;;;;;18.60;65.40;;;;;;4514235;31;20101;-66
2022/09/20 04:16:48;;;;;;;;;;;18.60;65.40;;;;;;4499049;31;20039;-66
2022/09/20 04:19:21;;;;;;;;;;;18.60;65.40;;;;;;4507919;31;20106;-66
2022/09/20 04:21:55;;;;;;;;;;;18.60;65.40;;;;;;4503580;31;20025;-66
2022/09/20 04:24:24;;;;;;;;;;;18.50;65.40;;;;;;4514108;31;20523;-65
2022/09/20 04:26:54;;;;;;;;;;;18.60;65.40;;;;;;4513879;31;20090;-65
2022/09/20 04:29:29;;;;;;;;;;;18.60;65.40;;;;;;4514829;31;20168;-66
2022/09/20 04:31:58;;;;;;;;;;;18.60;65.40;;;;;;4511143;31;20025;-66
2022/09/20 04:36:27;;;;;;;;;;;18.60;65.40;;;;;;4514371;31;20916;-66
2022/09/20 04:37:26;;;;;;;;;;;18.50;65.40;;;;;;4513955;31;20044;-65
2022/09/20 04:39:59;;;;;;;;;;;18.50;65.30;;;;;;4513588;31;20458;-65
2022/09/20 04:42:41;;;;;;;;;;;18.60;65.40;;;;;;4514531;31;20021;-66
2022/09/20 04:45:20;;;;;;;;;;;18.60;65.40;;;;;;4513712;31;20166;-65
2022/09/20 04:47:55;;;;;;;;;;;18.50;65.40;;;;;;4502650;31;20390;-66
2022/09/20 04:50:49;;;;;;;;;;;18.50;65.40;;;;;;4502830;31;20025;-65
2022/09/20 04:53:30;;;;;;;;;;;18.50;65.30;;;;;;4469654;31;20530;-65
2022/09/20 04:56:05;;;;;;;;;;;18.50;65.40;;;;;;4502540;31;20040;-65
2022/09/20 04:58:37;;;;;;;;;;;18.50;65.40;;;;;;4513608;31;20085;-66
2022/09/20 05:01:15;;;;;;;;;;;18.50;65.40;;;;;;4513338;31;20021;-65
2022/09/20 05:03:50;;;;;;;;;;;18.50;65.30;;;;;;4514302;31;20052;-65
2022/09/20 05:06:34;;;;;;;;;;;18.50;65.30;;;;;;4513136;31;20021;-66
2022/09/20 05:09:13;;;;;;;;;;;18.50;65.40;;;;;;4513279;31;20041;-66
2022/09/20 05:11:53;;;;;;;;;;;18.50;65.30;;;;;;4513814;31;20048;-66
2022/09/20 05:14:48;;;;;;;;;;;18.50;65.30;;;;;;4512887;31;20138;-65
2022/09/20 05:17:16;;;;;;;;;;;18.50;65.30;;;;;;4503060;31;20080;-65
2022/09/20 05:19:42;;;;;;;;;;;18.50;65.30;;;;;;4513090;31;20123;-66
2022/09/20 05:22:11;;;;;;;;;;;18.50;65.30;;;;;;4513071;31;20353;-65
2022/09/20 05:24:52;;;;;;;;;;;18.50;65.30;;;;;;4513571;31;20036;-65
2022/09/20 05:27:36;;;;;;;;;;;18.50;65.30;;;;;;4511826;31;20081;-66
2022/09/20 05:30:02;;;;;;;;;;;18.50;65.40;;;;;;4502297;31;20464;-66
2022/09/20 05:32:34;;;;;;;;;;;18.40;65.20;;;;;;4512921;31;20021;-66
2022/09/20 05:35:15;;;;;;;;;;;18.50;65.30;;;;;;4513170;31;20036;-66
2022/09/20 05:38:01;;;;;;;;;;;18.50;65.30;;;;;;4513737;31;20108;-66
2022/09/20 05:40:27;;;;;;;;;;;18.40;65.20;;;;;;4512607;31;20043;-66
2022/09/20 05:42:53;;;;;;;;;;;18.40;65.20;;;;;;4513562;31;20171;-65
2022/09/20 05:45:22;;;;;;;;;;;18.40;65.20;;;;;;4513047;31;20027;-65
2022/09/20 05:47:55;;;;;;;;;;;18.40;65.20;;;;;;4513188;31;20029;-66
2022/09/20 05:50:33;;;;;;;;;;;18.50;65.30;;;;;;4513467;31;20397;-65
2022/09/20 05:53:02;;;;;;;;;;;18.40;65.20;;;;;;4508753;31;20169;-65
2022/09/20 05:55:43;;;;;;;;;;;18.40;65.20;;;;;;4509434;31;20036;-66
2022/09/20 05:58:22;;;;;;;;;;;18.40;65.20;;;;;;4511834;31;20039;-66
2022/09/20 06:00:51;;;;;;;;;;;18.40;65.20;;;;;;4501644;31;20039;-66
2022/09/20 06:03:29;;;;;;;;;;;18.40;65.20;;;;;;4512546;31;20035;-65
2022/09/20 06:06:02;;;;;;;;;;;18.40;65.20;;;;;;4512559;31;20163;-66
2022/09/20 06:08:42;;;;;;;;;;;18.40;65.20;;;;;;4513247;31;20024;-66
2022/09/20 06:11:26;;;;;;;;;;;18.40;65.20;;;;;;4512874;31;20142;-66
2022/09/20 06:14:02;;;;;;;;;;;18.40;65.20;;;;;;4512986;31;20044;-66
2022/09/20 06:16:54;;;;;;;;;;;18.40;65.20;;;;;;4512554;31;20039;-66
2022/09/20 06:19:23;;;;;;;;;;;18.40;65.30;;;;;;4492800;31;20028;-66
2022/09/20 06:21:50;;;;;;;;;;;18.40;65.30;;;;;;4502763;31;20017;-66
2022/09/20 06:24:31;;;;;;;;;;;18.40;65.30;;;;;;4512471;31;20169;-65
2022/09/20 06:27:01;;;;;;;;;;;18.40;65.30;;;;;;4524610;31;20096;-65
2022/09/20 06:29:32;;;;;;;;;;;18.40;65.00;;;;;;4513217;31;20040;-65
2022/09/20 06:31:58;;;;;;;;;;;18.30;64.70;;;;;;4512364;31;20059;-65
2022/09/20 06:34:25;;;;;;;;;;;18.40;64.60;;;;;;4512548;31;20064;-65
2022/09/20 06:42:32;;;;;;;;;;;18.30;65.10;;;;;;4513227;31;20048;-66
2022/09/20 06:44:58;;;;;;;;;;;18.30;65.10;;;;;;4514886;31;20021;-66
2022/09/20 06:47:25;;;;;;;;;;;18.30;65.20;;;;;;4515428;31;20142;-66
2022/09/20 06:49:50;;;;;;;;;;;18.30;65.20;;;;;;4511979;31;20036;-66
2022/09/20 06:52:17;;;;;;;;;;;18.30;65.20;;;;;;4510310;31;20021;-67
2022/09/20 06:54:45;;;;;;;;;;;18.30;65.30;;;;;;4515986;31;20021;-66
2022/09/20 06:57:12;;;;;;;;;;;18.40;65.50;;;;;;4514899;31;20036;-65
2022/09/20 06:59:38;;;;;;;;;;;18.40;65.60;;;;;;4510681;31;20178;-66
2022/09/20 07:02:04;;;;;;;;;;;18.40;65.70;;;;;;4506159;31;20588;-66
2022/09/20 07:04:29;;;;;;;;;;;18.40;65.70;;;;;;4515368;31;20029;-66
2022/09/20 07:06:59;;;;;;;;;;;18.40;65.80;;;;;;4515347;31;20564;-66
2022/09/20 07:09:25;;;;;;;;;;;18.50;65.90;;;;;;4527183;31;20043;-65
2022/09/20 07:11:50;;;;;;;;;;;18.50;65.80;;;;;;4514899;31;20029;-66
2022/09/20 07:14:17;;;;;;;;;;;18.50;65.90;;;;;;4514653;31;20063;-66
2022/09/20 07:16:43;;;;;;;;;;;18.50;65.80;;;;;;4515669;31;20069;-65
2022/09/20 07:19:09;;;;;;;;;;;18.50;65.90;;;;;;4514795;31;20021;-66
2022/09/20 07:21:35;;;;;;;;;;;18.50;65.80;;;;;;4514005;31;20021;-65
2022/09/20 07:24:01;;;;;;;;;;;18.50;65.90;;;;;;4526552;31;20064;-65
2022/09/20 07:26:27;;;;;;;;;;;18.60;66.00;;;;;;4512250;31;20033;-66
2022/09/20 07:28:54;;;;;;;;;;;18.60;66.10;;;;;;4514968;31;20039;-66
2022/09/20 07:31:21;;;;;;;;;;;18.60;66.00;;;;;;4513772;31;20092;-66
2022/09/20 07:33:47;;;;;;;;;;;18.60;66.00;;;;;;4511548;31;20163;-66
2022/09/20 07:36:13;;;;;;;;;;;18.60;66.00;;;;;;4512916;31;20075;-66
2022/09/20 07:38:39;;;;;;;;;;;18.60;66.00;;;;;;4514241;31;20193;-65
2022/09/20 07:41:06;;;;;;;;;;;18.70;66.10;;;;;;4514145;31;20195;-66
2022/09/20 07:43:32;;;;;;;;;;;18.70;66.00;;;;;;4513460;31;20515;-66
2022/09/20 07:45:58;;;;;;;;;;;18.70;66.10;;;;;;4514657;31;20436;-66
2022/09/20 07:48:26;;;;;;;;;;;18.70;66.20;;;;;;4512702;31;20106;-66
2022/09/20 07:50:52;;;;;;;;;;;18.70;66.20;;;;;;4513135;31;20483;-65
2022/09/20 07:53:18;;;;;;;;;;;18.70;66.10;;;;;;4513490;31;20037;-65
2022/09/20 07:55:55;;;;;;;;;;;18.70;66.00;;;;;;4514666;31;20030;-66
2022/09/20 07:58:21;;;;;;;;;;;18.70;66.00;;;;;;4506435;31;20021;-66
2022/09/20 08:00:50;;;;;;;;;;;18.70;66.10;;;;;;4513187;31;20097;-65
2022/09/20 08:03:16;;;;;;;;;;;18.70;66.10;;;;;;4514963;31;20174;-65
2022/09/20 08:05:42;;;;;;;;;;;18.70;66.10;;;;;;4513716;31;20044;-65
2022/09/20 08:08:08;;;;;;;;;;;18.70;66.10;;;;;;4514255;31;20382;-65
2022/09/20 08:10:34;;;;;;;;;;;18.70;66.00;;;;;;4513963;31;20028;-65
2022/09/20 08:13:00;;;;;;;;;;;18.70;65.90;;;;;;4514150;31;20522;-65
2022/09/20 08:15:25;;;;;;;;;;;18.70;65.90;;;;;;4514281;31;20035;-65
2022/09/20 08:17:51;;;;;;;;;;;18.70;65.80;;;;;;4513246;31;20028;-65
2022/09/20 08:20:17;;;;;;;;;;;18.70;65.70;;;;;;4513607;31;20012;-65
2022/09/20 08:22:43;;;;;;;;;;;18.70;65.70;;;;;;4513059;31;20040;-64
2022/09/20 08:25:09;;;;;;;;;;;18.70;65.50;;;;;;4513671;31;20401;-65
2022/09/20 08:27:36;;;;;;;;;;;18.70;65.30;;;;;;4513149;31;20477;-65
2022/09/20 08:30:01;;;;;;;;;;;18.70;65.40;;;;;;4513555;31;20024;-65
2022/09/20 08:32:27;;;;;;;;;;;18.80;65.40;;;;;;4512408;31;20028;-65
2022/09/20 08:34:53;;;;;;;;;;;18.70;65.40;;;;;;4513338;31;20079;-65
2022/09/20 08:37:18;;;;;;;;;;;18.70;65.30;;;;;;4513646;31;20008;-65
2022/09/20 08:39:44;;;;;;;;;;;18.70;65.20;;;;;;4513381;31;20020;-64
2022/09/20 08:42:11;;;;;;;;;;;18.70;66.10;;;;;;4508739;31;20072;-65
2022/09/20 08:44:49;;;;;;;;;;;18.70;65.20;;;;;;4513215;31;20166;-64
2022/09/20 08:47:20;;;;;;;;;;;18.70;65.00;;;;;;4512888;31;20568;-64
2022/09/20 08:49:46;;;;;;;;;;;18.70;65.00;;;;;;4513879;31;20488;-65
2022/09/20 08:52:15;;;;;;;;;;;18.80;64.90;;;;;;4512531;31;20515;-65
2022/09/20 08:54:42;;;;;;;;;;;18.70;64.70;;;;;;4513818;31;20056;-65
2022/09/20 08:57:15;;;;;;;;;;;18.70;64.50;;;;;;4513147;31;20428;-67
2022/09/20 08:59:41;;;;;;;;;;;18.70;64.60;;;;;;4508296;31;20031;-64
2022/09/20 09:02:14;;;;;;;;;;;18.70;64.60;;;;;;4513598;31;20025;-65
2022/09/20 09:04:41;;;;;;;;;;;18.70;64.60;;;;;;4512734;31;20029;-65
2022/09/20 09:07:10;;;;;;;;;;;18.70;64.70;;;;;;4513226;31;20179;-65
2022/09/20 09:09:37;;;;;;;;;;;18.70;64.70;;;;;;4513104;31;20039;-65
2022/09/20 09:12:03;;;;;;;;;;;18.70;64.60;;;;;;4513287;31;20044;-65
2022/09/20 09:14:50;;;;;;;;;;;18.70;64.70;;;;;;4512868;31;20473;-65
2022/09/20 09:17:17;;;;;;;;;;;18.70;64.70;;;;;;4509704;31;20036;-65
2022/09/20 09:19:56;;;;;;;;;;;18.70;64.60;;;;;;4512405;31;20162;-65
2022/09/20 09:22:23;;;;;;;;;;;18.70;64.60;;;;;;4512707;31;20040;-64
2022/09/20 09:25:06;;;;;;;;;;;18.70;64.60;;;;;;4513874;31;20082;-65
2022/09/20 09:27:32;;;;;;;;;;;18.70;64.50;;;;;;4511267;31;20095;-65
2022/09/20 09:29:58;;;;;;;;;;;18.70;64.30;;;;;;4513439;31;20129;-65
2022/09/20 09:32:27;;;;;;;;;;;18.70;64.10;;;;;;4512287;31;20457;-65
2022/09/20 09:34:54;;;;;;;;;;;18.70;64.10;;;;;;4512531;31;20502;-65
2022/09/20 09:37:22;;;;;;;;;;;18.70;64.20;;;;;;4500473;31;20029;-65
2022/09/20 09:40:05;;;;;;;;;;;18.70;64.10;;;;;;4509355;31;20098;-66
2022/09/20 09:42:32;;;;;;;;;;;18.70;64.00;;;;;;4513657;31;20040;-65
2022/09/20 09:45:17;;;;;;;;;;;18.70;64.00;;;;;;4512147;31;20198;-65
2022/09/20 09:47:43;;;;;;;;;;;18.70;64.00;;;;;;4494725;31;20639;-65
2022/09/20 09:50:19;;;;;;;;;;;18.70;64.00;;;;;;4513184;31;20101;-63
2022/09/20 09:52:56;;;;;;;;;;;18.70;63.90;;;;;;4511024;31;20068;-67
2022/09/20 09:55:22;;;;;;;;;;;18.70;63.90;;;;;;4511801;31;20571;-65
2022/09/20 09:57:54;;;;;;;;;;;18.70;63.90;;;;;;4512931;31;21009;-64
2022/09/20 10:00:20;;;;;;;;;;;18.70;64.00;;;;;;4513107;31;20090;-65
2022/09/20 10:02:59;;;;;;;;;;;18.70;64.00;;;;;;4512124;31;20129;-65
2022/09/20 10:05:28;;;;;;;;;;;18.80;64.00;;;;;;4512377;31;20029;-65
2022/09/20 10:08:03;;;;;;;;;;;18.80;64.00;;;;;;4513511;31;20033;-65
2022/09/20 10:10:34;;;;;;;;;;;18.80;64.00;;;;;;4512579;31;20078;-65
2022/09/20 10:13:15;;;;;;;;;;;18.80;64.00;;;;;;4510662;31;20389;-65
2022/09/20 10:15:44;;;;;;;;;;;18.80;64.00;;;;;;4512903;31;20051;-65
2022/09/20 10:18:16;;;;;;;;;;;18.80;64.10;;;;;;4512608;31;20029;-64
2022/09/20 10:20:44;;;;;;;;;;;18.80;64.00;;;;;;4516119;31;20056;-65
2022/09/20 10:23:19;;;;;;;;;;;18.80;64.00;;;;;;4515061;31;20064;-65
2022/09/20 10:25:46;;;;;;;;;;;18.80;64.10;;;;;;4515659;31;20032;-64
2022/09/20 10:28:18;;;;;;;;;;;18.80;64.00;;;;;;4515596;31;20028;-63
2022/09/20 10:31:02;;;;;;;;;;;18.80;64.00;;;;;;4514789;31;20467;-63
2022/09/20 10:33:28;;;;;;;;;;;18.80;64.00;;;;;;4516271;31;20433;-63
2022/09/20 10:36:09;;;;;;;;;;;18.80;63.80;;;;;;4515189;31;20035;-63
2022/09/20 10:38:37;;;;;;;;;;;18.90;63.80;;;;;;4512927;31;20032;-64
2022/09/20 10:44:07;;;;;;;;;;;18.90;63.50;;;;;;4513640;31;20029;-63
2022/09/20 10:46:51;;;;;;;;;;;18.90;63.40;;;;;;4512821;31;20033;-66
2022/09/20 10:49:36;;;;;;;;;;;18.90;63.50;;;;;;4514737;31;20149;-65
2022/09/20 10:52:08;;;;;;;;;;;19.00;63.30;;;;;;4513653;31;20109;-64
2022/09/20 10:54:40;;;;;;;;;;;19.00;63.10;;;;;;4513684;31;20147;-63
2022/09/20 10:57:18;;;;;;;;;;;19.00;63.00;;;;;;4514042;31;20075;-63
2022/09/20 11:00:03;;;;;;;;;;;19.00;62.70;;;;;;4514404;31;20043;-63
2022/09/20 11:02:38;;;;;;;;;;;19.10;62.80;;;;;;4513932;31;20037;-64
2022/09/20 11:05:04;;;;;;;;;;;19.10;62.90;;;;;;4513620;31;20033;-64
2022/09/20 11:07:36;;;;;;;;;;;19.10;63.00;;;;;;4514965;31;20039;-64
2022/09/20 11:10:41;;;;;;;;;;;19.10;62.90;;;;;;4514211;31;20531;-64
2022/09/20 11:13:10;;;;;;;;;;;19.20;62.90;;;;;;4464810;32;20160;-64
2022/09/20 11:15:43;;;;;;;;;;;19.20;63.00;;;;;;4464874;32;20045;-64
2022/09/20 11:18:19;;;;;;;;;;;19.20;63.00;;;;;;4488984;31;20540;-63
2022/09/20 11:20:48;;;;;;;;;;;19.20;62.90;;;;;;4514606;31;20036;-65
2022/09/20 11:23:14;;;;;;;;;;;19.20;62.50;;;;;;4513210;31;20470;-64
2022/09/20 11:26:02;;;;;;;;;;;19.20;62.40;;;;;;4514370;31;20012;-64
2022/09/20 11:28:57;;;;;;;;;;;19.20;62.40;;;;;;4513487;31;20072;-64
2022/09/20 11:31:49;;;;;;;;;;;19.20;62.40;;;;;;4500973;31;20053;-63
2022/09/20 11:34:19;;;;;;;;;;;19.30;62.70;;;;;;4509974;31;20031;-64
2022/09/20 11:36:51;;;;;;;;;;;19.20;62.60;;;;;;4514384;31;20043;-64
2022/09/20 11:39:20;;;;;;;;;;;19.30;62.60;;;;;;4512849;31;20024;-64
2022/09/20 11:41:48;;;;;;;;;;;19.30;62.40;;;;;;4514785;31;20057;-64
2022/09/20 11:44:15;;;;;;;;;;;19.30;62.20;;;;;;4510674;31;20032;-63
2022/09/20 11:47:02;;;;;;;;;;;19.30;62.30;;;;;;4513344;31;20048;-63
2022/09/20 11:49:47;;;;;;;;;;;19.30;62.20;;;;;;4513830;31;20039;-63
2022/09/20 11:52:16;;;;;;;;;;;19.30;62.40;;;;;;4509915;31;20122;-65
2022/09/20 11:55:00;;;;;;;;;;;19.30;62.40;;;;;;4514251;31;20170;-64
2022/09/20 11:57:27;;;;;;;;;;;19.30;62.00;;;;;;4511363;31;20051;-64
2022/09/20 11:59:59;;;;;;;;;;;19.40;62.00;;;;;;4514085;31;20151;-64
2022/09/20 12:02:46;;;;;;;;;;;19.40;62.10;;;;;;4511528;31;20059;-64
2022/09/20 12:05:23;;;;;;;;;;;19.40;61.80;;;;;;4511537;31;20033;-63
2022/09/20 12:07:52;;;;;;;;;;;19.40;61.70;;;;;;4514977;31;20028;-64
2022/09/20 12:10:23;;;;;;;;;;;19.40;61.40;;;;;;4513126;31;20583;-66
2022/09/20 12:12:54;;;;;;;;;;;19.40;61.40;;;;;;4492463;31;21568;-64
2022/09/20 12:15:20;;;;;;;;;;;19.40;61.40;;;;;;4513124;31;20036;-63
2022/09/20 12:17:46;;;;;;;;;;;19.40;61.10;;;;;;4512120;31;20081;-63
2022/09/20 12:20:30;;;;;;;;;;;19.40;61.10;;;;;;4513992;31;20028;-64
2022/09/20 12:23:15;;;;;;;;;;;19.40;61.10;;;;;;4511050;31;20105;-63
2022/09/20 12:25:59;;;;;;;;;;;19.40;61.20;;;;;;4513330;31;20037;-63
2022/09/20 12:28:54;;;;;;;;;;;19.40;61.10;;;;;;4512553;31;20036;-64
2022/09/20 12:31:20;;;;;;;;;;;19.40;60.90;;;;;;4500326;31;20033;-65
2022/09/20 12:33:55;;;;;;;;;;;19.40;60.90;;;;;;4513356;31;20021;-64
2022/09/20 12:36:21;;;;;;;;;;;19.50;60.70;;;;;;4512302;31;20017;-62
2022/09/20 12:38:50;;;;;;;;;;;19.40;60.50;;;;;;4509909;31;20043;-63
2022/09/20 12:41:18;;;;;;;;;;;19.50;60.60;;;;;;4511353;31;20048;-63
2022/09/20 12:43:49;;;;;;;;;;;19.50;60.60;;;;;;4511520;31;20385;-66
2022/09/20 12:46:36;;;;;;;;;;;19.50;60.80;;;;;;4513619;31;20263;-64
2022/09/20 12:52:49;;;;;;;;;;;19.50;60.80;;;;;;4510974;31;20029;-64
2022/09/20 12:54:53;;;;;;;;;;;19.60;61.00;;;;;;4514073;31;20159;-63
2022/09/20 12:57:31;;;;;;;;;;;19.60;60.80;;;;;;4511873;31;20137;-64
2022/09/20 12:59:58;;;;;;;;;;;19.60;60.70;;;;;;4513294;31;20021;-64
2022/09/20 13:02:42;;;;;;;;;;;19.60;60.80;;;;;;4511146;31;20178;-63
2022/09/20 13:05:27;;;;;;;;;;;19.60;60.60;;;;;;4512891;31;20035;-64
2022/09/20 13:07:58;;;;;;;;;;;19.60;60.90;;;;;;4508603;31;20067;-63
2022/09/20 13:10:28;;;;;;;;;;;19.70;60.70;;;;;;4507305;31;20205;-63
2022/09/20 13:13:00;;;;;;;;;;;19.60;60.80;;;;;;4479722;31;38060;-63
2022/09/20 13:15:27;;;;;;;;;;;19.60;60.70;;;;;;4506300;31;20039;-63
2022/09/20 13:18:00;;;;;;;;;;;19.60;60.70;;;;;;4512768;31;20275;-63
2022/09/20 13:20:33;;;;;;;;;;;19.70;60.50;;;;;;4513164;31;20448;-63
2022/09/20 13:23:00;;;;;;;;;;;19.60;60.40;;;;;;4512242;31;20051;-63
2022/09/20 13:25:27;;;;;;;;;;;19.60;60.30;;;;;;4513511;31;20083;-63
2022/09/20 13:28:05;;;;;;;;;;;19.60;60.40;;;;;;4512826;31;20160;-63
2022/09/20 13:30:36;;;;;;;;;;;19.60;60.80;;;;;;4512089;31;20048;-63
2022/09/20 13:33:16;;;;;;;;;;;19.60;60.70;;;;;;4504571;31;20063;-62
2022/09/20 13:35:46;;;;;;;;;;;19.60;61.00;;;;;;4500600;31;20200;-62
2022/09/20 13:38:13;;;;;;;;;;;19.60;61.10;;;;;;4512874;31;20040;-63
2022/09/20 13:40:43;;;;;;;;;;;19.50;61.20;;;;;;4512128;31;20462;-63
2022/09/20 13:43:27;;;;;;;;;;;19.60;61.20;;;;;;4504868;31;20021;-63
2022/09/20 13:45:56;;;;;;;;;;;19.60;61.10;;;;;;4502285;31;20045;-63
2022/09/20 13:48:27;;;;;;;;;;;19.60;61.00;;;;;;4509677;31;20044;-63
2022/09/20 13:50:53;;;;;;;;;;;19.50;61.20;;;;;;4511351;31;20198;-63
2022/09/20 13:53:20;;;;;;;;;;;19.50;61.40;;;;;;4514853;31;20048;-62
2022/09/20 13:55:47;;;;;;;;;;;19.50;61.60;;;;;;4517480;31;20041;-62
2022/09/20 13:58:20;;;;;;;;;;;19.50;61.70;;;;;;4515191;31;20044;-63
2022/09/20 14:00:50;;;;;;;;;;;19.50;61.80;;;;;;4517206;31;20036;-63
2022/09/20 14:03:17;;;;;;;;;;;19.50;61.80;;;;;;4515510;31;20017;-63
2022/09/20 14:05:53;;;;;;;;;;;19.50;61.90;;;;;;4516418;31;20068;-64
2022/09/20 14:08:22;;;;;;;;;;;19.50;62.00;;;;;;4515691;31;20013;-63
2022/09/20 14:10:49;;;;;;;;;;;19.50;62.00;;;;;;4517570;31;20016;-63
2022/09/20 14:13:16;;;;;;;;;;;19.50;62.00;;;;;;4502699;31;28408;-64
2022/09/20 14:15:45;;;;;;;;;;;19.60;62.00;;;;;;4516494;31;20033;-64
2022/09/20 14:18:20;;;;;;;;;;;19.50;62.00;;;;;;4517240;31;20033;-63
2022/09/20 14:20:46;;;;;;;;;;;19.60;62.20;;;;;;4517343;31;20456;-64
2022/09/20 14:23:21;;;;;;;;;;;19.60;62.20;;;;;;4517167;31;20496;-64
2022/09/20 14:26:05;;;;;;;;;;;19.60;62.10;;;;;;4517346;31;20151;-64
2022/09/20 14:28:31;;;;;;;;;;;19.60;62.10;;;;;;4516801;31;20032;-64
2022/09/20 14:31:15;;;;;;;;;;;19.40;61.90;;;;;;4517328;31;20040;-64
2022/09/20 14:33:42;;;;;;;;;;;19.50;62.90;;;;;;4516686;31;20091;-63
2022/09/20 14:36:18;;;;;;;;;;;19.50;62.00;;;;;;4517335;31;20029;-64
2022/09/20 14:38:44;;;;;;;;;;;19.50;62.00;;;;;;4517434;31;20057;-63
2022/09/20 14:41:11;;;;;;;;;;;19.50;62.00;;;;;;4517830;31;20051;-63
2022/09/20 14:43:37;;;;;;;;;;;19.50;62.00;;;;;;4515721;31;20153;-63
2022/09/20 14:46:04;;;;;;;;;;;19.50;62.00;;;;;;4517811;31;20058;-63
2022/09/20 14:48:32;;;;;;;;;;;19.50;62.00;;;;;;4514691;31;20044;-63
2022/09/20 14:51:14;;;;;;;;;;;19.50;62.00;;;;;;4517579;31;20110;-63
2022/09/20 14:53:40;;;;;;;;;;;19.50;62.00;;;;;;4514716;31;20417;-63
2022/09/20 14:56:08;;;;;;;;;;;19.40;61.90;;;;;;4516159;31;20062;-63
2022/09/20 14:58:53;;;;;;;;;;;19.40;62.00;;;;;;4516696;31;20335;-63
2022/09/20 15:01:23;;;;;;;;;;;19.40;62.00;;;;;;4514462;31;20040;-64